Aérodrome :
LOGIN :

S'inscrire | Disclaimer

   EN    FR    IT 

 










Légende :    VFR   VFR Marginal   IFR   IFR Intensif   IFR Très Intensif
Visi : 
Plafond : 
>= 8 km
>= 3000ft
5 à 8 km
1000 à 3000 ft
1500m à 5 km
500 à 1000 ft
800 à 1500m
200 à 500 ft
< 800m
< 200 ft
Symboles :   Orages  Brouillard  Fortes neiges  Fortes précipitations  Vent > 20 kt
SIGMETs :   Divers  Orages  Givrage  Turbulence  Onde Orograph.  Cendres Volcan.






- Altitude de l'aérodrome : 510 ft


LJCE - Cerklje

DERNIER METAR :
  • 121300Z 09003KT 020V120 4000 RA BR OVC006 08/08 Q1003 RMK YLO

METARs EXPIRÉS :
  • 121230Z 00000KT 4000 RA BR OVC006 08/08 Q1004 RMK YLO
  • 121200Z 22002KT 5000 RA BR BKN006 OVC015 09/08 Q1004 RMK YLO
  • 121130Z VRB01KT 5000 -RA BR BKN006 OVC013 09/08 Q1004 RMK YLO
  • 121100Z 06003KT 030V090 5000 -RA BR BKN007 OVC013 09/08 Q1006 RMK GRN
  • 121030Z 10006KT 6000 -RA BKN007 OVC015 09/08 Q1006 RMK GRN

TAF AMD TAF LJCE
Valide du 12 à 12h jusqu'au 12 à 21h UTC


121215Z 1212/1221 08005KT 6000 -RA BKN005 OVC015
TEMPO 1212/1218 04010KT 3000 RA BR OVC005



MET'MAP, la Météo Aéronautique d'un coup d'oeil ! - Copyright ORBIFLY Décembre 2007 - Disclaimer

ORBIFLY MET'MAP TEAM :

Programmation & Développement : Alexandra Zaïnal
Conception & Développement : Baudouin d'Aumeries
Co-Programmation & Développement : Marc-Olivier Méhu
Soutien technique & logistique : Manuel Goepfert

Contact : metmap@orbifly.com




SOURCES & CREDITS :

   NOAA